Time;durP1;ratioP1;P1;durP2;ratioP2;P2;SDS_P1;SDS_P2;PMS_P1;PMS_P2;Temp;Humidity;BMP_temperature;BMP_pressure;BME280_temperature;BME280_humidity;BME280_pressure;Samples;Min_cycle;Max_cycle;Signal;HPM_P1;HPM_P2
2021/06/22 00:00:37;;;;;;;13.30;8.77;;;;;;;;;;5074728;28;20067;-71
2021/06/22 00:03:03;;;;;;;13.07;7.93;;;;;;;;;;5077581;28;20020;-72
2021/06/22 00:05:31;;;;;;;15.75;8.95;;;;;;;;;;5072821;28;20024;-72
2021/06/22 00:07:57;;;;;;;17.27;9.35;;;;;;;;;;5073678;28;20021;-72
2021/06/22 00:10:25;;;;;;;15.48;8.52;;;;;;;;;;5079620;28;20020;-72
2021/06/22 00:12:51;;;;;;;13.48;8.25;;;;;;;;;;5088733;28;20031;-72
2021/06/22 00:15:19;;;;;;;13.75;8.35;;;;;;;;;;5073054;28;20036;-72
2021/06/22 00:17:45;;;;;;;12.65;8.52;;;;;;;;;;5073171;28;20438;-72
2021/06/22 00:20:12;;;;;;;13.27;8.15;;;;;;;;;;5064574;28;20108;-72
2021/06/22 00:22:41;;;;;;;11.73;8.05;;;;;;;;;;5059058;28;20024;-72
2021/06/22 00:25:08;;;;;;;12.48;8.25;;;;;;;;;;5087120;28;20482;-72
2021/06/22 00:27:35;;;;;;;12.82;8.73;;;;;;;;;;5087084;28;20036;-73
2021/06/22 00:30:01;;;;;;;14.05;8.93;;;;;;;;;;5078857;28;20029;-72
2021/06/22 00:32:27;;;;;;;13.00;8.52;;;;;;;;;;5085352;28;20032;-72
2021/06/22 00:34:53;;;;;;;13.10;8.50;;;;;;;;;;5072543;28;20111;-72
2021/06/22 00:37:19;;;;;;;13.25;8.35;;;;;;;;;;5085864;28;20594;-72
2021/06/22 00:39:46;;;;;;;15.95;8.57;;;;;;;;;;5074104;28;20493;-73
2021/06/22 00:42:12;;;;;;;13.48;8.52;;;;;;;;;;5082341;28;20035;-71
2021/06/22 00:44:45;;;;;;;12.93;8.75;;;;;;;;;;5079311;28;20028;-72
2021/06/22 00:47:11;;;;;;;13.20;8.68;;;;;;;;;;5073367;28;20420;-72
2021/06/22 00:49:37;;;;;;;10.55;7.78;;;;;;;;;;5084103;28;20055;-72
2021/06/22 00:52:03;;;;;;;14.23;8.20;;;;;;;;;;5071947;28;20044;-72
2021/06/22 00:54:29;;;;;;;12.30;7.65;;;;;;;;;;5075840;28;20393;-72
2021/06/22 00:56:55;;;;;;;13.88;8.80;;;;;;;;;;5074784;28;20044;-72
2021/06/22 00:59:21;;;;;;;13.27;7.95;;;;;;;;;;5074686;28;20109;-71
2021/06/22 01:01:48;;;;;;;13.05;7.45;;;;;;;;;;5073844;28;20042;-72
2021/06/22 01:04:14;;;;;;;11.82;8.55;;;;;;;;;;5072520;28;20542;-72
2021/06/22 01:06:40;;;;;;;14.10;9.27;;;;;;;;;;5089059;28;20055;-72
2021/06/22 01:09:06;;;;;;;11.32;7.75;;;;;;;;;;5072298;28;20082;-73
2021/06/22 01:11:32;;;;;;;16.85;9.38;;;;;;;;;;5071940;28;20056;-72
2021/06/22 01:13:58;;;;;;;11.55;8.35;;;;;;;;;;5068395;28;20027;-72
2021/06/22 01:16:26;;;;;;;14.38;8.52;;;;;;;;;;5061412;28;20029;-72
2021/06/22 01:19:02;;;;;;;15.57;9.15;;;;;;;;;;5079473;28;20020;-72
2021/06/22 01:21:29;;;;;;;12.35;8.02;;;;;;;;;;5075400;28;20491;-72
2021/06/22 01:23:55;;;;;;;12.18;8.18;;;;;;;;;;5072741;28;20112;-72
2021/06/22 01:26:21;;;;;;;11.45;7.43;;;;;;;;;;5073319;28;20430;-72
2021/06/22 01:28:47;;;;;;;11.98;7.93;;;;;;;;;;5076168;28;20483;-72
2021/06/22 01:31:14;;;;;;;13.85;8.15;;;;;;;;;;5069349;28;20036;-71
2021/06/22 01:33:44;;;;;;;12.88;8.60;;;;;;;;;;5077016;28;20430;-72
2021/06/22 01:36:10;;;;;;;11.63;7.90;;;;;;;;;;5072223;28;20104;-72
2021/06/22 01:38:36;;;;;;;15.27;9.25;;;;;;;;;;5077747;28;20033;-72
2021/06/22 01:41:02;;;;;;;12.98;7.43;;;;;;;;;;5072147;28;20032;-72
2021/06/22 01:43:28;;;;;;;12.68;8.35;;;;;;;;;;5086379;28;20600;-72
2021/06/22 01:45:55;;;;;;;12.98;8.13;;;;;;;;;;5080277;28;20154;-72
2021/06/22 01:48:21;;;;;;;12.18;8.40;;;;;;;;;;5069942;28;20159;-71
2021/06/22 01:50:47;;;;;;;14.90;8.90;;;;;;;;;;5085392;28;20059;-71
2021/06/22 01:53:13;;;;;;;12.88;8.05;;;;;;;;;;5078701;28;20052;-72
2021/06/22 01:55:43;;;;;;;14.85;8.88;;;;;;;;;;5092048;28;20576;-72
2021/06/22 01:58:13;;;;;;;12.57;7.47;;;;;;;;;;5079628;28;20059;-71
2021/06/22 02:00:40;;;;;;;13.23;8.75;;;;;;;;;;5079535;28;20020;-71
2021/06/22 02:03:07;;;;;;;13.02;7.93;;;;;;;;;;5085626;28;20094;-72
2021/06/22 02:05:33;;;;;;;15.52;8.05;;;;;;;;;;5063885;28;20025;-72
2021/06/22 02:07:59;;;;;;;14.43;9.30;;;;;;;;;;5068603;28;20509;-70
2021/06/22 02:10:25;;;;;;;14.55;8.20;;;;;;;;;;5076330;28;20442;-71
2021/06/22 02:12:51;;;;;;;16.27;8.93;;;;;;;;;;5082902;28;20020;-71
2021/06/22 02:15:17;;;;;;;13.25;7.97;;;;;;;;;;5092568;28;20036;-72
2021/06/22 02:17:43;;;;;;;14.07;8.68;;;;;;;;;;5079011;28;20028;-72
2021/06/22 02:20:10;;;;;;;11.05;7.15;;;;;;;;;;5081594;28;20501;-72
2021/06/22 02:22:36;;;;;;;12.65;8.18;;;;;;;;;;5070174;28;20029;-71
2021/06/22 02:25:03;;;;;;;13.20;8.63;;;;;;;;;;5089878;28;20379;-72
2021/06/22 02:27:32;;;;;;;13.18;8.10;;;;;;;;;;5075414;28;20029;-72
2021/06/22 02:29:58;;;;;;;13.73;8.48;;;;;;;;;;5075525;28;20021;-71
2021/06/22 02:32:25;;;;;;;11.40;7.78;;;;;;;;;;5078312;28;20028;-71
2021/06/22 02:34:52;;;;;;;13.48;7.75;;;;;;;;;;5082262;28;20028;-72
2021/06/22 02:37:18;;;;;;;15.98;8.57;;;;;;;;;;5090914;28;20024;-71
2021/06/22 02:39:48;;;;;;;13.90;8.48;;;;;;;;;;5083479;28;20386;-72
2021/06/22 02:42:14;;;;;;;14.45;8.52;;;;;;;;;;5092664;28;20113;-72
2021/06/22 02:44:40;;;;;;;11.88;7.32;;;;;;;;;;5074514;28;20032;-72
2021/06/22 02:47:06;;;;;;;12.07;8.43;;;;;;;;;;5082817;28;20500;-72
2021/06/22 02:49:32;;;;;;;11.65;7.72;;;;;;;;;;5082947;28;20047;-72
2021/06/22 02:51:59;;;;;;;12.57;8.30;;;;;;;;;;5074317;28;20052;-72
2021/06/22 02:54:25;;;;;;;16.50;9.20;;;;;;;;;;5085396;28;20081;-72
2021/06/22 02:56:51;;;;;;;14.60;8.77;;;;;;;;;;5078797;28;20095;-71
2021/06/22 02:59:17;;;;;;;14.18;8.18;;;;;;;;;;5081233;28;20482;-71
2021/06/22 03:01:43;;;;;;;14.45;8.40;;;;;;;;;;5087807;28;20060;-71
2021/06/22 03:04:09;;;;;;;13.80;8.90;;;;;;;;;;5080631;28;20035;-72
2021/06/22 03:06:35;;;;;;;13.80;7.13;;;;;;;;;;5089521;28;20433;-71
2021/06/22 03:09:02;;;;;;;13.73;9.10;;;;;;;;;;5077967;28;20028;-72
2021/06/22 03:11:28;;;;;;;20.67;8.90;;;;;;;;;;5073921;28;20026;-72
2021/06/22 03:13:54;;;;;;;13.45;8.07;;;;;;;;;;5071891;28;20056;-72
2021/06/22 03:16:20;;;;;;;16.40;8.40;;;;;;;;;;5063208;28;20478;-72
2021/06/22 03:18:46;;;;;;;12.90;8.90;;;;;;;;;;5081601;28;20378;-72
2021/06/22 03:21:14;;;;;;;12.82;8.23;;;;;;;;;;5082948;28;20028;-72
2021/06/22 03:23:40;;;;;;;13.57;8.02;;;;;;;;;;5091050;28;20073;-71
2021/06/22 03:26:06;;;;;;;14.35;8.63;;;;;;;;;;5073921;28;20074;-71
2021/06/22 03:28:32;;;;;;;14.40;8.52;;;;;;;;;;5077946;28;20031;-72
2021/06/22 03:30:58;;;;;;;14.10;9.25;;;;;;;;;;5081437;28;20035;-71
2021/06/22 03:33:25;;;;;;;13.95;8.68;;;;;;;;;;5075063;28;20023;-72
2021/06/22 03:35:51;;;;;;;14.52;8.07;;;;;;;;;;5074809;28;20021;-72
2021/06/22 03:38:17;;;;;;;15.30;8.13;;;;;;;;;;5074790;28;20028;-71
2021/06/22 03:40:43;;;;;;;13.00;8.23;;;;;;;;;;5082366;28;20028;-72
2021/06/22 03:43:09;;;;;;;12.00;7.10;;;;;;;;;;5074665;28;20055;-72
2021/06/22 03:45:35;;;;;;;14.73;9.73;;;;;;;;;;5074734;28;20039;-72
2021/06/22 03:48:01;;;;;;;12.10;7.97;;;;;;;;;;5068077;28;20491;-72
2021/06/22 03:50:27;;;;;;;14.65;8.73;;;;;;;;;;5079762;28;20462;-72
2021/06/22 03:52:53;;;;;;;12.63;7.97;;;;;;;;;;5081718;28;20056;-72
2021/06/22 03:55:26;;;;;;;17.25;8.55;;;;;;;;;;5082838;28;20051;-71
2021/06/22 03:57:56;;;;;;;13.85;8.30;;;;;;;;;;5093743;28;20028;-71
2021/06/22 04:00:22;;;;;;;14.25;7.95;;;;;;;;;;5084644;28;20024;-72
2021/06/22 04:02:48;;;;;;;15.55;9.98;;;;;;;;;;5093316;28;20386;-72
2021/06/22 04:05:15;;;;;;;13.93;8.73;;;;;;;;;;5068364;28;20020;-71
2021/06/22 04:07:41;;;;;;;14.13;8.48;;;;;;;;;;5082267;28;20030;-71
2021/06/22 04:10:07;;;;;;;14.00;7.20;;;;;;;;;;5074942;28;20201;-71
2021/06/22 04:12:33;;;;;;;14.52;7.43;;;;;;;;;;5072923;28;20029;-72
2021/06/22 04:15:00;;;;;;;15.32;8.10;;;;;;;;;;5072650;28;20055;-71
2021/06/22 04:17:26;;;;;;;15.38;8.00;;;;;;;;;;5084997;28;20111;-71
2021/06/22 04:19:52;;;;;;;16.80;8.85;;;;;;;;;;5072264;28;20036;-71
2021/06/22 04:22:18;;;;;;;12.55;8.77;;;;;;;;;;5077523;28;20536;-71
2021/06/22 04:24:44;;;;;;;12.73;8.32;;;;;;;;;;5073073;28;20426;-71
2021/06/22 04:27:10;;;;;;;13.57;8.63;;;;;;;;;;5072697;28;20017;-72
2021/06/22 04:29:36;;;;;;;14.68;8.73;;;;;;;;;;5072806;28;20032;-72
2021/06/22 04:32:02;;;;;;;15.63;8.23;;;;;;;;;;5088142;28;20433;-71
2021/06/22 04:34:29;;;;;;;13.93;8.13;;;;;;;;;;5073876;28;20058;-72
2021/06/22 04:36:55;;;;;;;13.43;8.82;;;;;;;;;;5076290;28;20032;-72
2021/06/22 04:39:21;;;;;;;13.38;8.15;;;;;;;;;;5064143;28;20037;-72
2021/06/22 04:41:47;;;;;;;14.68;8.65;;;;;;;;;;5074815;28;20055;-71
2021/06/22 04:44:13;;;;;;;12.88;8.68;;;;;;;;;;5075589;28;20040;-71
2021/06/22 04:46:39;;;;;;;12.75;8.45;;;;;;;;;;5092149;28;20501;-70
2021/06/22 04:49:05;;;;;;;15.55;9.13;;;;;;;;;;5075294;28;20028;-72
2021/06/22 04:51:31;;;;;;;14.35;9.57;;;;;;;;;;5084365;28;20110;-71
2021/06/22 04:53:57;;;;;;;13.00;8.35;;;;;;;;;;5074936;28;20024;-72
2021/06/22 04:56:24;;;;;;;14.93;8.73;;;;;;;;;;5066420;28;20463;-72
2021/06/22 04:58:52;;;;;;;12.80;8.00;;;;;;;;;;5074008;28;20028;-71
2021/06/22 05:01:18;;;;;;;15.25;8.48;;;;;;;;;;5078642;28;20485;-72
2021/06/22 05:03:44;;;;;;;12.30;8.25;;;;;;;;;;5073223;28;20486;-72
2021/06/22 05:06:11;;;;;;;15.93;8.60;;;;;;;;;;5074789;28;20032;-72
2021/06/22 05:08:37;;;;;;;13.18;8.20;;;;;;;;;;5079644;28;20462;-72
2021/06/22 05:11:05;;;;;;;13.43;9.02;;;;;;;;;;5078689;28;20099;-72
2021/06/22 05:13:31;;;;;;;15.27;7.50;;;;;;;;;;5058643;28;20021;-72
2021/06/22 05:15:57;;;;;;;12.88;7.38;;;;;;;;;;5058565;28;20037;-71
2021/06/22 05:18:23;;;;;;;15.13;9.35;;;;;;;;;;5081755;28;20028;-70
2021/06/22 05:20:49;;;;;;;13.70;8.77;;;;;;;;;;5077457;28;20508;-71
2021/06/22 05:23:16;;;;;;;16.33;8.98;;;;;;;;;;5075774;28;20067;-71
2021/06/22 05:25:42;;;;;;;13.52;8.73;;;;;;;;;;5075294;28;20028;-71
2021/06/22 05:28:08;;;;;;;14.25;8.55;;;;;;;;;;5070664;28;20028;-72
2021/06/22 05:30:34;;;;;;;15.65;8.18;;;;;;;;;;5071080;28;20383;-72
2021/06/22 05:33:00;;;;;;;17.33;9.15;;;;;;;;;;5070058;28;20158;-71
2021/06/22 05:35:26;;;;;;;12.23;8.98;;;;;;;;;;5069634;28;20055;-71
2021/06/22 05:37:52;;;;;;;11.40;7.47;;;;;;;;;;5069927;28;20025;-72
2021/06/22 05:40:19;;;;;;;13.57;8.50;;;;;;;;;;5068907;28;20031;-71
2021/06/22 05:42:45;;;;;;;15.85;9.45;;;;;;;;;;5073932;28;20020;-70
2021/06/22 05:45:11;;;;;;;13.45;8.75;;;;;;;;;;5073802;28;20028;-71
2021/06/22 05:47:37;;;;;;;18.65;9.60;;;;;;;;;;5058168;28;20025;-72
2021/06/22 05:50:03;;;;;;;13.27;9.00;;;;;;;;;;5092294;28;20047;-72
2021/06/22 05:52:29;;;;;;;13.55;8.63;;;;;;;;;;5095936;28;20044;-71
2021/06/22 05:54:56;;;;;;;15.93;9.45;;;;;;;;;;5078025;28;20591;-72
2021/06/22 05:57:22;;;;;;;15.38;8.85;;;;;;;;;;5075744;28;20028;-72
2021/06/22 05:59:48;;;;;;;15.30;8.68;;;;;;;;;;5075419;28;20052;-71
2021/06/22 06:02:14;;;;;;;15.18;8.48;;;;;;;;;;5075244;28;20028;-71
2021/06/22 06:04:40;;;;;;;12.60;9.10;;;;;;;;;;5058270;28;20100;-72
2021/06/22 06:07:06;;;;;;;12.95;8.85;;;;;;;;;;5064243;28;20052;-71
2021/06/22 06:09:32;;;;;;;15.20;8.98;;;;;;;;;;5075343;28;20028;-72
2021/06/22 06:11:58;;;;;;;15.43;9.30;;;;;;;;;;5075031;28;20112;-72
2021/06/22 06:14:24;;;;;;;15.27;9.93;;;;;;;;;;5075502;28;20062;-72
2021/06/22 06:16:50;;;;;;;13.70;8.77;;;;;;;;;;5075079;28;20029;-72
2021/06/22 06:19:17;;;;;;;13.50;8.77;;;;;;;;;;5062259;28;20033;-72
2021/06/22 06:21:43;;;;;;;11.93;8.80;;;;;;;;;;5064888;28;20097;-72
2021/06/22 06:24:10;;;;;;;14.65;8.20;;;;;;;;;;5055563;28;20021;-73
2021/06/22 06:26:54;;;;;;;15.30;9.40;;;;;;;;;;5086669;28;20041;-73
2021/06/22 06:29:30;;;;;;;15.60;9.48;;;;;;;;;;5071553;28;20024;-72
2021/06/22 06:31:56;;;;;;;11.73;8.60;;;;;;;;;;5072098;28;20491;-72
2021/06/22 06:34:22;;;;;;;14.27;8.80;;;;;;;;;;5070781;28;20466;-72
2021/06/22 06:36:48;;;;;;;15.52;9.30;;;;;;;;;;5069640;28;20032;-72
2021/06/22 06:39:14;;;;;;;14.13;8.93;;;;;;;;;;5051861;28;20078;-72
2021/06/22 06:41:40;;;;;;;15.38;8.32;;;;;;;;;;5070094;28;20202;-72
2021/06/22 06:44:06;;;;;;;13.90;9.02;;;;;;;;;;5070316;28;20032;-72
2021/06/22 06:46:32;;;;;;;15.88;8.90;;;;;;;;;;5071236;28;20060;-72
2021/06/22 06:48:58;;;;;;;11.98;8.98;;;;;;;;;;5071640;28;20028;-73
2021/06/22 06:51:24;;;;;;;13.23;9.07;;;;;;;;;;5071157;28;20115;-72
2021/06/22 06:53:51;;;;;;;13.93;9.18;;;;;;;;;;5067536;28;20091;-72
2021/06/22 06:56:17;;;;;;;12.57;9.18;;;;;;;;;;5069019;28;20032;-70
2021/06/22 06:58:43;;;;;;;15.75;9.48;;;;;;;;;;5067274;28;20029;-71
2021/06/22 07:01:09;;;;;;;13.63;9.10;;;;;;;;;;5075711;28;20031;-70
2021/06/22 07:03:36;;;;;;;16.27;9.70;;;;;;;;;;5071542;28;20085;-71
2021/06/22 07:06:02;;;;;;;14.73;9.05;;;;;;;;;;5068810;28;20017;-71
2021/06/22 07:08:29;;;;;;;11.55;8.80;;;;;;;;;;5082025;28;20032;-72
2021/06/22 07:10:55;;;;;;;13.48;8.57;;;;;;;;;;5071466;28;20093;-72
2021/06/22 07:13:22;;;;;;;13.32;8.65;;;;;;;;;;5066980;28;20116;-71
2021/06/22 07:15:49;;;;;;;13.27;8.48;;;;;;;;;;5065276;28;20057;-72
2021/06/22 07:18:15;;;;;;;16.90;9.43;;;;;;;;;;5071153;28;20060;-71
2021/06/22 07:20:41;;;;;;;13.05;9.00;;;;;;;;;;5067879;28;20036;-71
2021/06/22 07:23:07;;;;;;;16.05;10.45;;;;;;;;;;5072085;28;20036;-71
2021/06/22 07:25:33;;;;;;;14.02;8.57;;;;;;;;;;5070856;28;20042;-72
2021/06/22 07:28:00;;;;;;;12.60;8.68;;;;;;;;;;5063217;28;20064;-71
2021/06/22 07:30:27;;;;;;;13.48;9.05;;;;;;;;;;5069116;28;20029;-72
2021/06/22 07:32:54;;;;;;;18.02;9.43;;;;;;;;;;5068717;28;20390;-72
2021/06/22 07:35:20;;;;;;;17.13;9.23;;;;;;;;;;5066064;28;20421;-70
2021/06/22 07:37:46;;;;;;;14.98;8.48;;;;;;;;;;5073273;28;20062;-71
2021/06/22 07:40:13;;;;;;;13.60;8.90;;;;;;;;;;5070787;28;20479;-71
2021/06/22 07:42:39;;;;;;;11.32;8.25;;;;;;;;;;5068546;28;20040;-71
2021/06/22 07:45:06;;;;;;;13.80;9.20;;;;;;;;;;5066786;28;20107;-70
2021/06/22 07:47:32;;;;;;;16.00;8.95;;;;;;;;;;5069402;28;20399;-71
2021/06/22 07:49:58;;;;;;;14.82;9.05;;;;;;;;;;5064375;28;20379;-71
2021/06/22 07:52:24;;;;;;;10.52;8.43;;;;;;;;;;5068220;28;20052;-71
2021/06/22 07:54:50;;;;;;;11.27;8.15;;;;;;;;;;5068740;28;20050;-71
2021/06/22 07:57:17;;;;;;;14.55;8.32;;;;;;;;;;5068058;28;20112;-72
2021/06/22 07:59:43;;;;;;;11.18;7.93;;;;;;;;;;5068575;28;20487;-71
2021/06/22 08:02:09;;;;;;;15.88;8.95;;;;;;;;;;5072489;28;20036;-71
2021/06/22 08:04:35;;;;;;;12.23;7.82;;;;;;;;;;5063378;28;20032;-71
2021/06/22 08:07:02;;;;;;;9.82;7.25;;;;;;;;;;5071981;28;20024;-72
2021/06/22 08:09:28;;;;;;;11.40;8.05;;;;;;;;;;5068475;28;20032;-71
2021/06/22 08:11:54;;;;;;;11.68;8.00;;;;;;;;;;5070438;28;20025;-70
2021/06/22 08:14:20;;;;;;;11.55;8.43;;;;;;;;;;5066999;28;20032;-72
2021/06/22 08:16:46;;;;;;;9.95;7.40;;;;;;;;;;5067582;28;20544;-72
2021/06/22 08:19:12;;;;;;;11.98;7.82;;;;;;;;;;5067404;28;20037;-72
2021/06/22 08:21:39;;;;;;;12.02;8.32;;;;;;;;;;5069569;28;20035;-71
2021/06/22 08:24:05;;;;;;;10.52;7.43;;;;;;;;;;5064930;28;20104;-71
2021/06/22 08:26:31;;;;;;;12.50;7.80;;;;;;;;;;5073470;28;20036;-72
2021/06/22 08:28:57;;;;;;;8.50;7.25;;;;;;;;;;5069385;28;20028;-72
2021/06/22 08:31:24;;;;;;;11.10;8.10;;;;;;;;;;5069495;28;20119;-71
2021/06/22 08:33:50;;;;;;;12.18;8.02;;;;;;;;;;5066787;28;20074;-72
2021/06/22 08:36:16;;;;;;;11.65;7.75;;;;;;;;;;5065132;28;20033;-71
2021/06/22 08:38:42;;;;;;;9.60;7.45;;;;;;;;;;5064904;28;20033;-71
2021/06/22 08:41:09;;;;;;;9.65;7.68;;;;;;;;;;5069254;28;20031;-71
2021/06/22 08:43:35;;;;;;;9.10;7.53;;;;;;;;;;5074132;28;20077;-72
2021/06/22 08:46:03;;;;;;;12.05;8.23;;;;;;;;;;5062158;28;20054;-70
2021/06/22 08:48:29;;;;;;;10.23;7.97;;;;;;;;;;5064284;28;20032;-71
2021/06/22 08:50:55;;;;;;;12.65;7.95;;;;;;;;;;5059378;28;20074;-71
2021/06/22 08:53:22;;;;;;;9.55;7.57;;;;;;;;;;5064361;28;20097;-72
2021/06/22 08:55:48;;;;;;;8.55;7.53;;;;;;;;;;5062518;28;20031;-71
2021/06/22 08:58:18;;;;;;;11.85;7.00;;;;;;;;;;5065857;28;20024;-70
2021/06/22 09:00:45;;;;;;;9.90;7.38;;;;;;;;;;5065871;28;20483;-71
2021/06/22 09:03:13;;;;;;;8.73;6.53;;;;;;;;;;5065334;28;20040;-71
2021/06/22 09:05:39;;;;;;;9.20;7.03;;;;;;;;;;5065358;28;20036;-71
2021/06/22 09:08:06;;;;;;;9.80;6.55;;;;;;;;;;5067277;28;20599;-71
2021/06/22 09:10:34;;;;;;;7.75;6.95;;;;;;;;;;5066505;28;20032;-70
2021/06/22 09:13:10;;;;;;;10.27;6.57;;;;;;;;;;5065896;28;20033;-70
2021/06/22 09:15:38;;;;;;;9.68;6.28;;;;;;;;;;5065698;28;20029;-70
2021/06/22 09:18:04;;;;;;;9.13;6.95;;;;;;;;;;5070767;28;20033;-72
2021/06/22 09:20:33;;;;;;;9.38;7.28;;;;;;;;;;5069780;28;20033;-69
2021/06/22 09:23:03;;;;;;;11.35;7.40;;;;;;;;;;5071003;28;20397;-70
2021/06/22 09:25:33;;;;;;;12.77;6.43;;;;;;;;;;5068039;28;20027;-69
2021/06/22 09:27:59;;;;;;;8.40;5.97;;;;;;;;;;5068902;28;20050;-71
2021/06/22 09:30:37;;;;;;;8.60;6.55;;;;;;;;;;5070734;28;20039;-71
2021/06/22 09:33:22;;;;;;;9.80;6.65;;;;;;;;;;5070886;28;20020;-71
2021/06/22 09:35:49;;;;;;;8.20;6.50;;;;;;;;;;5065401;28;20100;-71
2021/06/22 09:38:15;;;;;;;7.60;6.65;;;;;;;;;;5070273;28;20032;-71
2021/06/22 09:40:42;;;;;;;10.63;6.50;;;;;;;;;;5068197;28;20056;-71
2021/06/22 09:43:08;;;;;;;10.43;6.32;;;;;;;;;;5070681;28;20063;-71
2021/06/22 09:45:36;;;;;;;8.73;5.88;;;;;;;;;;5066645;28;20032;-72
2021/06/22 09:48:03;;;;;;;7.10;6.15;;;;;;;;;;5070475;28;20016;-71
2021/06/22 09:50:36;;;;;;;6.28;5.63;;;;;;;;;;5070478;28;20033;-71
2021/06/22 09:53:21;;;;;;;7.40;6.40;;;;;;;;;;5070301;28;20036;-71
2021/06/22 09:55:47;;;;;;;7.95;5.53;;;;;;;;;;5067814;28;20388;-71
2021/06/22 09:58:14;;;;;;;6.20;5.60;;;;;;;;;;5069957;28;20067;-70
2021/06/22 10:00:40;;;;;;;6.68;5.47;;;;;;;;;;5069538;28;20070;-70
2021/06/22 10:03:06;;;;;;;6.22;5.53;;;;;;;;;;5067831;28;20115;-71
2021/06/22 10:05:49;;;;;;;6.85;5.50;;;;;;;;;;5068670;28;20547;-71
2021/06/22 10:08:16;;;;;;;6.65;5.95;;;;;;;;;;5068782;28;20029;-71
2021/06/22 10:10:42;;;;;;;7.82;5.82;;;;;;;;;;5067854;28;20149;-71
2021/06/22 10:13:08;;;;;;;9.13;6.30;;;;;;;;;;5070147;28;20483;-71
2021/06/22 10:15:34;;;;;;;8.55;6.10;;;;;;;;;;5066070;28;20036;-71
2021/06/22 10:18:00;;;;;;;6.47;5.85;;;;;;;;;;5069835;28;20039;-71
2021/06/22 10:20:26;;;;;;;6.32;5.68;;;;;;;;;;5066975;28;20029;-70
2021/06/22 10:22:53;;;;;;;6.82;6.13;;;;;;;;;;5069546;28;20201;-70
2021/06/22 10:25:20;;;;;;;9.95;6.30;;;;;;;;;;5067986;28;20487;-71
2021/06/22 10:27:49;;;;;;;7.85;5.75;;;;;;;;;;5070429;28;20501;-71
2021/06/22 10:30:19;;;;;;;6.82;5.18;;;;;;;;;;5073260;28;20017;-71
2021/06/22 10:32:45;;;;;;;7.72;5.47;;;;;;;;;;5069126;28;20027;-71
2021/06/22 10:35:12;;;;;;;7.63;5.70;;;;;;;;;;5070228;28;20048;-71
2021/06/22 10:37:41;;;;;;;6.90;5.28;;;;;;;;;;5073212;28;20025;-71
2021/06/22 10:40:13;;;;;;;7.22;6.35;;;;;;;;;;5073209;28;20025;-70
2021/06/22 10:42:49;;;;;;;8.13;6.28;;;;;;;;;;5073479;28;20105;-71
2021/06/22 10:45:15;;;;;;;7.75;5.90;;;;;;;;;;5070480;28;20075;-71
2021/06/22 10:47:42;;;;;;;7.43;5.72;;;;;;;;;;5073152;28;20483;-70
2021/06/22 10:50:17;;;;;;;8.77;5.90;;;;;;;;;;5072127;28;20082;-71
2021/06/22 10:52:49;;;;;;;7.05;6.35;;;;;;;;;;5072128;28;20040;-71
2021/06/22 10:55:18;;;;;;;9.38;5.82;;;;;;;;;;5070137;28;20077;-70
2021/06/22 10:58:03;;;;;;;6.55;5.22;;;;;;;;;;5072989;28;20074;-71
2021/06/22 11:00:38;;;;;;;8.90;6.03;;;;;;;;;;5072946;28;20560;-70
2021/06/22 11:03:06;;;;;;;6.13;5.53;;;;;;;;;;5073083;28;20032;-71
2021/06/22 11:05:34;;;;;;;8.55;6.00;;;;;;;;;;5070486;28;20536;-71
2021/06/22 11:08:26;;;;;;;9.20;6.60;;;;;;;;;;5072456;28;20070;-70
2021/06/22 11:10:55;;;;;;;7.63;6.57;;;;;;;;;;5069427;28;20616;-71
2021/06/22 11:13:41;;;;;;;8.20;5.93;;;;;;;;;;5069860;28;20078;-71
2021/06/22 11:16:07;;;;;;;;;;;;;;;;;;5068968;28;20032;-71
2021/06/22 11:18:48;;;;;;;8.13;6.82;;;;;;;;;;5071805;28;19961;-71
2021/06/22 11:21:14;;;;;;;12.68;7.75;;;;;;;;;;5068809;28;20108;-71
2021/06/22 11:23:56;;;;;;;7.57;6.45;;;;;;;;;;5071602;28;20123;-70
2021/06/22 11:26:22;;;;;;;10.02;7.70;;;;;;;;;;5069413;28;20024;-71
2021/06/22 11:29:02;;;;;;;8.05;6.57;;;;;;;;;;5068796;28;20016;-70
2021/06/22 11:31:43;;;;;;;7.75;6.93;;;;;;;;;;5087227;28;20032;-71
2021/06/22 11:34:14;;;;;;;7.00;6.30;;;;;;;;;;5067422;28;20028;-70
2021/06/22 11:36:44;;;;;;;8.48;6.65;;;;;;;;;;5072223;28;20033;-70
2021/06/22 11:39:16;;;;;;;8.40;7.30;;;;;;;;;;5069595;28;20029;-69
2021/06/22 11:41:43;;;;;;;8.32;6.30;;;;;;;;;;5071660;28;20021;-70
2021/06/22 11:44:09;;;;;;;7.43;6.43;;;;;;;;;;5066556;28;20032;-71
2021/06/22 11:46:36;;;;;;;8.70;6.97;;;;;;;;;;5069456;28;20063;-71
2021/06/22 11:49:02;;;;;;;8.35;6.32;;;;;;;;;;5071761;28;20403;-70
2021/06/22 11:51:46;;;;;;;6.85;6.13;;;;;;;;;;5072305;28;20060;-71
2021/06/22 11:54:16;;;;;;;6.57;5.80;;;;;;;;;;5067301;28;20115;-69
2021/06/22 11:56:46;;;;;;;8.15;6.72;;;;;;;;;;5068298;28;20032;-71
2021/06/22 11:59:12;;;;;;;11.18;6.68;;;;;;;;;;5072579;28;20413;-71
2021/06/22 12:01:44;;;;;;;9.70;6.90;;;;;;;;;;5072483;28;20478;-71
2021/06/22 12:04:10;;;;;;;7.63;6.80;;;;;;;;;;5074322;28;20032;-71
2021/06/22 12:06:36;;;;;;;7.05;6.22;;;;;;;;;;5071964;28;20114;-71
2021/06/22 12:09:16;;;;;;;8.82;6.55;;;;;;;;;;5072236;28;20536;-71
2021/06/22 12:11:45;;;;;;;7.60;6.68;;;;;;;;;;5076845;28;20031;-71
2021/06/22 12:14:13;;;;;;;8.35;6.82;;;;;;;;;;5093091;28;20016;-72
2021/06/22 12:16:40;;;;;;;8.60;6.30;;;;;;;;;;5089380;28;20047;-71
2021/06/22 12:19:06;;;;;;;7.70;7.00;;;;;;;;;;5052781;28;20033;-71
2021/06/22 12:21:34;;;;;;;7.40;6.20;;;;;;;;;;5055082;28;20123;-71
2021/06/22 12:24:07;;;;;;;8.65;7.25;;;;;;;;;;5072904;28;20027;-72
2021/06/22 12:26:35;;;;;;;7.00;5.93;;;;;;;;;;5072713;28;20017;-71
2021/06/22 12:29:02;;;;;;;7.80;7.03;;;;;;;;;;5072785;28;20364;-72
2021/06/22 12:31:28;;;;;;;7.60;6.80;;;;;;;;;;5071278;28;20062;-72
2021/06/22 12:33:59;;;;;;;8.10;7.30;;;;;;;;;;5069889;28;20021;-71
2021/06/22 12:36:31;;;;;;;8.45;7.00;;;;;;;;;;5067334;28;20056;-70
2021/06/22 12:38:59;;;;;;;6.65;6.05;;;;;;;;;;5072476;28;20039;-71
2021/06/22 12:41:30;;;;;;;7.28;6.20;;;;;;;;;;5066391;28;20020;-71
2021/06/22 12:43:56;;;;;;;6.35;5.75;;;;;;;;;;5068476;28;20025;-71
2021/06/22 12:46:33;;;;;;;7.45;6.22;;;;;;;;;;5063902;28;20021;-71
2021/06/22 12:49:06;;;;;;;7.18;5.85;;;;;;;;;;5070975;28;20025;-71
2021/06/22 12:51:33;;;;;;;7.60;6.13;;;;;;;;;;5058566;28;20025;-70
2021/06/22 12:53:59;;;;;;;8.02;6.18;;;;;;;;;;5077485;28;20028;-71
2021/06/22 12:56:27;;;;;;;9.05;6.10;;;;;;;;;;5069313;28;20052;-71
2021/06/22 12:58:55;;;;;;;7.28;6.40;;;;;;;;;;5068718;28;20116;-71
2021/06/22 13:01:41;;;;;;;6.72;6.13;;;;;;;;;;5068819;28;20644;-71
2021/06/22 13:04:08;;;;;;;8.07;6.25;;;;;;;;;;5071315;28;20025;-71
2021/06/22 13:06:35;;;;;;;8.13;6.65;;;;;;;;;;5069233;28;20021;-71
2021/06/22 13:09:05;;;;;;;7.28;6.47;;;;;;;;;;5071459;28;20348;-71
2021/06/22 13:11:33;;;;;;;8.13;7.13;;;;;;;;;;5062083;28;20040;-70
2021/06/22 13:14:26;;;;;;;8.63;6.97;;;;;;;;;;5071774;28;20107;-71
2021/06/22 13:16:59;;;;;;;9.68;7.10;;;;;;;;;;5057417;28;20091;-70
2021/06/22 13:19:26;;;;;;;8.30;6.90;;;;;;;;;;5067910;28;20025;-71
2021/06/22 13:22:03;;;;;;;9.50;7.78;;;;;;;;;;5069375;28;20027;-71
2021/06/22 13:24:34;;;;;;;8.63;7.72;;;;;;;;;;5070381;28;20131;-71
2021/06/22 13:27:01;;;;;;;12.30;8.20;;;;;;;;;;5068090;28;20021;-71
2021/06/22 13:29:27;;;;;;;8.82;7.53;;;;;;;;;;5070062;28;20535;-71
2021/06/22 13:31:54;;;;;;;9.38;7.70;;;;;;;;;;5069685;28;20043;-71
2021/06/22 13:34:31;;;;;;;9.80;8.00;;;;;;;;;;5070605;28;20020;-71
2021/06/22 13:36:57;;;;;;;8.68;7.38;;;;;;;;;;5070651;28;20028;-72
2021/06/22 13:39:24;;;;;;;9.30;7.80;;;;;;;;;;5070566;28;20028;-72
2021/06/22 13:41:51;;;;;;;8.75;7.82;;;;;;;;;;5068765;28;20383;-72
2021/06/22 13:44:36;;;;;;;9.57;7.53;;;;;;;;;;5070617;28;20033;-72
2021/06/22 13:47:02;;;;;;;9.35;6.95;;;;;;;;;;5069829;28;20387;-72
2021/06/22 13:49:38;;;;;;;8.95;6.90;;;;;;;;;;5070649;28;20474;-72
2021/06/22 13:52:04;;;;;;;8.50;7.60;;;;;;;;;;5070284;28;20037;-72
2021/06/22 13:54:30;;;;;;;8.02;7.22;;;;;;;;;;5065340;28;20131;-71
2021/06/22 13:56:56;;;;;;;7.78;6.97;;;;;;;;;;5070235;28;20032;-72
2021/06/22 13:59:22;;;;;;;8.00;7.22;;;;;;;;;;5068796;28;20020;-72
2021/06/22 14:01:48;;;;;;;7.93;7.10;;;;;;;;;;5071208;28;20025;-73
2021/06/22 14:04:14;;;;;;;9.23;7.03;;;;;;;;;;5069320;28;20096;-73
2021/06/22 14:06:40;;;;;;;6.93;6.22;;;;;;;;;;5071987;28;20494;-72
2021/06/22 14:09:06;;;;;;;7.45;6.68;;;;;;;;;;5071758;28;20495;-71
2021/06/22 14:11:32;;;;;;;7.93;6.47;;;;;;;;;;5070366;28;20063;-71
2021/06/22 14:13:58;;;;;;;10.88;6.65;;;;;;;;;;5084658;28;20024;-72
2021/06/22 14:16:25;;;;;;;6.85;6.15;;;;;;;;;;5070903;28;20025;-72
2021/06/22 14:18:51;;;;;;;8.70;6.25;;;;;;;;;;5071677;28;20025;-72
2021/06/22 14:21:19;;;;;;;8.10;6.57;;;;;;;;;;5070000;28;20753;-72
2021/06/22 14:23:45;;;;;;;8.20;7.28;;;;;;;;;;5073565;28;20032;-72
2021/06/22 14:26:11;;;;;;;7.00;6.30;;;;;;;;;;5074026;28;20078;-72
2021/06/22 14:28:38;;;;;;;7.85;6.10;;;;;;;;;;5073410;28;20121;-70
2021/06/22 14:31:05;;;;;;;7.40;6.20;;;;;;;;;;5071516;28;20021;-72
2021/06/22 14:33:32;;;;;;;8.75;6.50;;;;;;;;;;5069808;28;20580;-71
2021/06/22 14:35:58;;;;;;;7.63;6.65;;;;;;;;;;5073890;28;20567;-71
2021/06/22 14:38:25;;;;;;;9.63;6.13;;;;;;;;;;5073382;28;20040;-71